sensor_id;sensor_type;location;lat;lon;timestamp;P1;durP1;ratioP1;P2;durP2;ratioP2
14076;SDS011;7114;51.100;13.998;2023-07-29T00:01:18;6.38;;;1.75;;
14076;SDS011;7114;51.100;13.998;2023-07-29T00:03:44;4.72;;;1.50;;
14076;SDS011;7114;51.100;13.998;2023-07-29T00:06:10;5.00;;;1.70;;
14076;SDS011;7114;51.100;13.998;2023-07-29T00:08:37;4.93;;;1.50;;
14076;SDS011;7114;51.100;13.998;2023-07-29T00:11:03;4.95;;;1.77;;
14076;SDS011;7114;51.100;13.998;2023-07-29T00:13:30;4.85;;;1.60;;
14076;SDS011;7114;51.100;13.998;2023-07-29T00:15:57;5.22;;;1.70;;
14076;SDS011;7114;51.100;13.998;2023-07-29T00:18:24;5.75;;;1.40;;
14076;SDS011;7114;51.100;13.998;2023-07-29T00:20:50;5.57;;;1.70;;
14076;SDS011;7114;51.100;13.998;2023-07-29T00:23:16;6.15;;;1.50;;
14076;SDS011;7114;51.100;13.998;2023-07-29T00:25:43;5.00;;;1.60;;
14076;SDS011;7114;51.100;13.998;2023-07-29T00:28:11;8.57;;;1.60;;
14076;SDS011;7114;51.100;13.998;2023-07-29T00:30:37;5.50;;;1.63;;
14076;SDS011;7114;51.100;13.998;2023-07-29T00:33:05;5.30;;;1.40;;
14076;SDS011;7114;51.100;13.998;2023-07-29T00:35:31;5.25;;;1.48;;
14076;SDS011;7114;51.100;13.998;2023-07-29T00:37:57;4.57;;;1.20;;
14076;SDS011;7114;51.100;13.998;2023-07-29T00:40:24;4.68;;;1.30;;
14076;SDS011;7114;51.100;13.998;2023-07-29T00:42:50;5.40;;;1.70;;
14076;SDS011;7114;51.100;13.998;2023-07-29T00:45:16;5.07;;;1.53;;
14076;SDS011;7114;51.100;13.998;2023-07-29T00:47:43;5.00;;;1.50;;
14076;SDS011;7114;51.100;13.998;2023-07-29T00:50:11;5.43;;;1.50;;
14076;SDS011;7114;51.100;13.998;2023-07-29T00:52:38;4.90;;;1.50;;
14076;SDS011;7114;51.100;13.998;2023-07-29T00:55:04;5.47;;;1.35;;
14076;SDS011;7114;51.100;13.998;2023-07-29T00:57:31;6.30;;;1.50;;
14076;SDS011;7114;51.100;13.998;2023-07-29T00:59:58;4.78;;;1.40;;
14076;SDS011;7114;51.100;13.998;2023-07-29T01:02:25;4.90;;;1.40;;
14076;SDS011;7114;51.100;13.998;2023-07-29T01:04:52;5.13;;;1.40;;
14076;SDS011;7114;51.100;13.998;2023-07-29T01:07:21;5.35;;;1.52;;
14076;SDS011;7114;51.100;13.998;2023-07-29T01:09:55;6.23;;;1.43;;
14076;SDS011;7114;51.100;13.998;2023-07-29T01:12:24;5.03;;;1.42;;
14076;SDS011;7114;51.100;13.998;2023-07-29T01:14:55;5.03;;;1.30;;
14076;SDS011;7114;51.100;13.998;2023-07-29T01:17:26;4.80;;;1.58;;
14076;SDS011;7114;51.100;13.998;2023-07-29T01:19:59;4.97;;;1.50;;
14076;SDS011;7114;51.100;13.998;2023-07-29T01:22:29;4.90;;;1.60;;
14076;SDS011;7114;51.100;13.998;2023-07-29T01:24:58;5.65;;;1.70;;
14076;SDS011;7114;51.100;13.998;2023-07-29T01:27:24;5.68;;;1.60;;
14076;SDS011;7114;51.100;13.998;2023-07-29T01:29:51;4.82;;;1.45;;
14076;SDS011;7114;51.100;13.998;2023-07-29T01:32:19;4.60;;;1.50;;
14076;SDS011;7114;51.100;13.998;2023-07-29T01:34:53;5.17;;;1.70;;
14076;SDS011;7114;51.100;13.998;2023-07-29T01:37:24;5.40;;;1.75;;
14076;SDS011;7114;51.100;13.998;2023-07-29T01:39:52;5.63;;;1.63;;
14076;SDS011;7114;51.100;13.998;2023-07-29T01:42:22;4.85;;;1.38;;
14076;SDS011;7114;51.100;13.998;2023-07-29T01:44:49;5.00;;;1.80;;
14076;SDS011;7114;51.100;13.998;2023-07-29T01:47:15;4.83;;;1.63;;
14076;SDS011;7114;51.100;13.998;2023-07-29T01:49:42;5.47;;;1.63;;
14076;SDS011;7114;51.100;13.998;2023-07-29T01:52:08;5.50;;;1.73;;
14076;SDS011;7114;51.100;13.998;2023-07-29T01:54:35;5.20;;;1.67;;
14076;SDS011;7114;51.100;13.998;2023-07-29T01:57:01;4.80;;;1.60;;
14076;SDS011;7114;51.100;13.998;2023-07-29T01:59:29;5.40;;;1.77;;
14076;SDS011;7114;51.100;13.998;2023-07-29T02:01:55;5.25;;;1.73;;
14076;SDS011;7114;51.100;13.998;2023-07-29T02:04:21;7.35;;;1.50;;
14076;SDS011;7114;51.100;13.998;2023-07-29T02:06:48;5.35;;;1.65;;
14076;SDS011;7114;51.100;13.998;2023-07-29T02:09:14;5.05;;;1.52;;
14076;SDS011;7114;51.100;13.998;2023-07-29T02:11:40;4.97;;;1.80;;
14076;SDS011;7114;51.100;13.998;2023-07-29T02:14:07;5.00;;;1.73;;
14076;SDS011;7114;51.100;13.998;2023-07-29T02:16:34;6.07;;;1.85;;
14076;SDS011;7114;51.100;13.998;2023-07-29T02:19:02;5.20;;;1.80;;
14076;SDS011;7114;51.100;13.998;2023-07-29T02:21:29;5.35;;;1.70;;
14076;SDS011;7114;51.100;13.998;2023-07-29T02:23:55;5.27;;;1.90;;
14076;SDS011;7114;51.100;13.998;2023-07-29T02:26:21;5.25;;;1.92;;
14076;SDS011;7114;51.100;13.998;2023-07-29T02:28:48;5.63;;;1.67;;
14076;SDS011;7114;51.100;13.998;2023-07-29T02:31:15;5.07;;;1.67;;
14076;SDS011;7114;51.100;13.998;2023-07-29T02:33:44;6.00;;;1.70;;
14076;SDS011;7114;51.100;13.998;2023-07-29T02:36:11;5.30;;;1.80;;
14076;SDS011;7114;51.100;13.998;2023-07-29T02:38:37;5.60;;;1.70;;
14076;SDS011;7114;51.100;13.998;2023-07-29T02:41:04;5.18;;;1.45;;
14076;SDS011;7114;51.100;13.998;2023-07-29T02:43:30;5.50;;;1.70;;
14076;SDS011;7114;51.100;13.998;2023-07-29T02:45:56;5.32;;;1.60;;
14076;SDS011;7114;51.100;13.998;2023-07-29T02:48:24;5.40;;;1.77;;
14076;SDS011;7114;51.100;13.998;2023-07-29T02:50:52;5.40;;;1.80;;
14076;SDS011;7114;51.100;13.998;2023-07-29T02:53:18;5.20;;;1.60;;
14076;SDS011;7114;51.100;13.998;2023-07-29T02:55:45;5.22;;;1.65;;
14076;SDS011;7114;51.100;13.998;2023-07-29T02:58:11;5.30;;;1.70;;
14076;SDS011;7114;51.100;13.998;2023-07-29T03:00:38;4.97;;;1.67;;
14076;SDS011;7114;51.100;13.998;2023-07-29T03:03:06;5.97;;;1.70;;
14076;SDS011;7114;51.100;13.998;2023-07-29T03:05:33;5.65;;;1.77;;
14076;SDS011;7114;51.100;13.998;2023-07-29T03:08:00;6.53;;;1.73;;
14076;SDS011;7114;51.100;13.998;2023-07-29T03:10:27;4.70;;;1.58;;
14076;SDS011;7114;51.100;13.998;2023-07-29T03:12:53;5.07;;;1.77;;
14076;SDS011;7114;51.100;13.998;2023-07-29T03:15:22;6.45;;;1.95;;
14076;SDS011;7114;51.100;13.998;2023-07-29T03:17:49;5.80;;;1.60;;
14076;SDS011;7114;51.100;13.998;2023-07-29T03:20:15;5.40;;;1.88;;
14076;SDS011;7114;51.100;13.998;2023-07-29T03:22:42;4.90;;;1.60;;
14076;SDS011;7114;51.100;13.998;2023-07-29T03:25:10;4.97;;;1.70;;
14076;SDS011;7114;51.100;13.998;2023-07-29T03:27:37;6.45;;;1.63;;
14076;SDS011;7114;51.100;13.998;2023-07-29T03:30:05;6.00;;;1.60;;
14076;SDS011;7114;51.100;13.998;2023-07-29T03:32:32;4.97;;;1.67;;
14076;SDS011;7114;51.100;13.998;2023-07-29T03:34:58;5.28;;;1.77;;
14076;SDS011;7114;51.100;13.998;2023-07-29T03:37:25;4.80;;;1.60;;
14076;SDS011;7114;51.100;13.998;2023-07-29T03:39:51;6.63;;;1.80;;
14076;SDS011;7114;51.100;13.998;2023-07-29T03:42:19;5.05;;;1.60;;
14076;SDS011;7114;51.100;13.998;2023-07-29T03:44:45;7.28;;;1.92;;
14076;SDS011;7114;51.100;13.998;2023-07-29T03:47:12;5.15;;;1.63;;
14076;SDS011;7114;51.100;13.998;2023-07-29T03:49:38;5.10;;;1.63;;
14076;SDS011;7114;51.100;13.998;2023-07-29T03:52:05;5.20;;;1.60;;
14076;SDS011;7114;51.100;13.998;2023-07-29T03:54:31;6.10;;;1.60;;
14076;SDS011;7114;51.100;13.998;2023-07-29T03:56:58;5.60;;;1.52;;
14076;SDS011;7114;51.100;13.998;2023-07-29T03:59:25;5.50;;;1.63;;
14076;SDS011;7114;51.100;13.998;2023-07-29T04:01:52;5.00;;;1.60;;
14076;SDS011;7114;51.100;13.998;2023-07-29T04:04:18;5.40;;;1.50;;
14076;SDS011;7114;51.100;13.998;2023-07-29T04:06:45;5.25;;;1.48;;
14076;SDS011;7114;51.100;13.998;2023-07-29T04:09:11;5.65;;;1.70;;
14076;SDS011;7114;51.100;13.998;2023-07-29T04:11:38;5.43;;;1.50;;
14076;SDS011;7114;51.100;13.998;2023-07-29T04:14:04;5.10;;;1.90;;
14076;SDS011;7114;51.100;13.998;2023-07-29T04:16:32;5.20;;;1.67;;
14076;SDS011;7114;51.100;13.998;2023-07-29T04:18:58;5.85;;;1.85;;
14076;SDS011;7114;51.100;13.998;2023-07-29T04:21:27;5.50;;;1.77;;
14076;SDS011;7114;51.100;13.998;2023-07-29T04:23:53;6.07;;;1.90;;
14076;SDS011;7114;51.100;13.998;2023-07-29T04:26:20;5.63;;;1.57;;
14076;SDS011;7114;51.100;13.998;2023-07-29T04:28:46;6.03;;;1.70;;
14076;SDS011;7114;51.100;13.998;2023-07-29T04:31:12;5.50;;;1.80;;
14076;SDS011;7114;51.100;13.998;2023-07-29T04:33:40;5.45;;;1.65;;
14076;SDS011;7114;51.100;13.998;2023-07-29T04:36:06;5.03;;;1.45;;
14076;SDS011;7114;51.100;13.998;2023-07-29T04:38:33;5.30;;;1.50;;
14076;SDS011;7114;51.100;13.998;2023-07-29T04:40:59;4.90;;;1.20;;
14076;SDS011;7114;51.100;13.998;2023-07-29T04:43:32;5.47;;;1.30;;
14076;SDS011;7114;51.100;13.998;2023-07-29T04:45:58;4.35;;;1.20;;
14076;SDS011;7114;51.100;13.998;2023-07-29T04:48:24;4.57;;;1.30;;
14076;SDS011;7114;51.100;13.998;2023-07-29T04:50:52;4.03;;;0.93;;
14076;SDS011;7114;51.100;13.998;2023-07-29T04:53:18;4.55;;;1.08;;
14076;SDS011;7114;51.100;13.998;2023-07-29T04:55:45;4.80;;;1.17;;
14076;SDS011;7114;51.100;13.998;2023-07-29T04:58:11;4.20;;;1.10;;
14076;SDS011;7114;51.100;13.998;2023-07-29T05:00:37;4.38;;;1.05;;
14076;SDS011;7114;51.100;13.998;2023-07-29T05:03:04;4.40;;;1.00;;
14076;SDS011;7114;51.100;13.998;2023-07-29T05:05:31;4.25;;;1.05;;
14076;SDS011;7114;51.100;13.998;2023-07-29T05:07:58;4.55;;;1.00;;
14076;SDS011;7114;51.100;13.998;2023-07-29T05:10:25;4.20;;;1.08;;
14076;SDS011;7114;51.100;13.998;2023-07-29T05:12:51;4.43;;;1.10;;
14076;SDS011;7114;51.100;13.998;2023-07-29T05:15:17;4.53;;;1.00;;
14076;SDS011;7114;51.100;13.998;2023-07-29T05:17:44;5.13;;;0.80;;
14076;SDS011;7114;51.100;13.998;2023-07-29T05:20:11;4.10;;;0.90;;
14076;SDS011;7114;51.100;13.998;2023-07-29T05:22:37;4.07;;;0.90;;
14076;SDS011;7114;51.100;13.998;2023-07-29T05:25:06;4.10;;;1.10;;
14076;SDS011;7114;51.100;13.998;2023-07-29T05:27:33;3.73;;;0.80;;
14076;SDS011;7114;51.100;13.998;2023-07-29T05:29:59;4.60;;;1.00;;
14076;SDS011;7114;51.100;13.998;2023-07-29T05:32:25;4.20;;;0.90;;
14076;SDS011;7114;51.100;13.998;2023-07-29T05:34:52;4.35;;;1.00;;
14076;SDS011;7114;51.100;13.998;2023-07-29T05:37:18;3.92;;;0.80;;
14076;SDS011;7114;51.100;13.998;2023-07-29T05:39:44;4.30;;;1.00;;
14076;SDS011;7114;51.100;13.998;2023-07-29T05:42:12;3.83;;;0.90;;
14076;SDS011;7114;51.100;13.998;2023-07-29T05:44:38;4.20;;;0.80;;
14076;SDS011;7114;51.100;13.998;2023-07-29T05:47:05;4.80;;;1.05;;
14076;SDS011;7114;51.100;13.998;2023-07-29T05:49:31;5.43;;;1.10;;
14076;SDS011;7114;51.100;13.998;2023-07-29T05:51:57;4.50;;;0.80;;
14076;SDS011;7114;51.100;13.998;2023-07-29T05:54:24;3.70;;;0.80;;
14076;SDS011;7114;51.100;13.998;2023-07-29T05:56:50;4.10;;;1.05;;
14076;SDS011;7114;51.100;13.998;2023-07-29T05:59:18;4.45;;;0.90;;
14076;SDS011;7114;51.100;13.998;2023-07-29T06:01:44;4.78;;;1.20;;
14076;SDS011;7114;51.100;13.998;2023-07-29T06:04:11;4.17;;;1.00;;
14076;SDS011;7114;51.100;13.998;2023-07-29T06:06:37;5.03;;;1.10;;
14076;SDS011;7114;51.100;13.998;2023-07-29T06:09:03;4.32;;;1.00;;
14076;SDS011;7114;51.100;13.998;2023-07-29T06:11:30;4.35;;;1.10;;
14076;SDS011;7114;51.100;13.998;2023-07-29T06:13:56;4.25;;;1.13;;
14076;SDS011;7114;51.100;13.998;2023-07-29T06:16:24;5.13;;;1.10;;
14076;SDS011;7114;51.100;13.998;2023-07-29T06:18:50;4.18;;;1.00;;
14076;SDS011;7114;51.100;13.998;2023-07-29T06:21:17;4.32;;;1.02;;
14076;SDS011;7114;51.100;13.998;2023-07-29T06:23:45;6.05;;;1.00;;
14076;SDS011;7114;51.100;13.998;2023-07-29T06:26:11;4.10;;;1.00;;
14076;SDS011;7114;51.100;13.998;2023-07-29T06:28:37;4.40;;;1.20;;
14076;SDS011;7114;51.100;13.998;2023-07-29T06:31:04;4.70;;;0.90;;
14076;SDS011;7114;51.100;13.998;2023-07-29T06:33:31;3.80;;;1.02;;
14076;SDS011;7114;51.100;13.998;2023-07-29T06:35:58;4.22;;;1.10;;
14076;SDS011;7114;51.100;13.998;2023-07-29T06:38:24;3.65;;;0.90;;
14076;SDS011;7114;51.100;13.998;2023-07-29T06:40:50;3.70;;;0.90;;
14076;SDS011;7114;51.100;13.998;2023-07-29T06:43:17;3.80;;;0.90;;
14076;SDS011;7114;51.100;13.998;2023-07-29T06:45:43;4.57;;;1.10;;
14076;SDS011;7114;51.100;13.998;2023-07-29T06:48:10;5.13;;;1.20;;
14076;SDS011;7114;51.100;13.998;2023-07-29T06:50:37;3.90;;;1.13;;
14076;SDS011;7114;51.100;13.998;2023-07-29T06:53:04;5.30;;;1.43;;
14076;SDS011;7114;51.100;13.998;2023-07-29T06:55:30;4.00;;;1.00;;
14076;SDS011;7114;51.100;13.998;2023-07-29T06:57:56;4.10;;;0.90;;
14076;SDS011;7114;51.100;13.998;2023-07-29T07:00:23;4.20;;;1.20;;
14076;SDS011;7114;51.100;13.998;2023-07-29T07:02:49;5.53;;;1.10;;
14076;SDS011;7114;51.100;13.998;2023-07-29T07:05:15;4.07;;;1.10;;
14076;SDS011;7114;51.100;13.998;2023-07-29T07:07:43;3.78;;;1.00;;
14076;SDS011;7114;51.100;13.998;2023-07-29T07:10:09;4.10;;;1.10;;
14076;SDS011;7114;51.100;13.998;2023-07-29T07:12:36;4.00;;;1.13;;
14076;SDS011;7114;51.100;13.998;2023-07-29T07:15:02;4.18;;;1.20;;
14076;SDS011;7114;51.100;13.998;2023-07-29T07:17:29;4.00;;;1.20;;
14076;SDS011;7114;51.100;13.998;2023-07-29T07:19:55;4.20;;;1.13;;
14076;SDS011;7114;51.100;13.998;2023-07-29T07:22:22;4.10;;;1.08;;
14076;SDS011;7114;51.100;13.998;2023-07-29T07:24:50;4.10;;;1.20;;
14076;SDS011;7114;51.100;13.998;2023-07-29T07:27:16;4.20;;;1.30;;
14076;SDS011;7114;51.100;13.998;2023-07-29T07:29:43;4.07;;;1.00;;
14076;SDS011;7114;51.100;13.998;2023-07-29T07:32:09;4.00;;;1.20;;
14076;SDS011;7114;51.100;13.998;2023-07-29T07:34:35;4.07;;;1.45;;
14076;SDS011;7114;51.100;13.998;2023-07-29T07:37:02;4.00;;;1.13;;
14076;SDS011;7114;51.100;13.998;2023-07-29T07:39:29;4.13;;;1.20;;
14076;SDS011;7114;51.100;13.998;2023-07-29T07:41:56;4.07;;;1.10;;
14076;SDS011;7114;51.100;13.998;2023-07-29T07:44:23;4.40;;;1.10;;
14076;SDS011;7114;51.100;13.998;2023-07-29T07:46:51;4.85;;;1.10;;
14076;SDS011;7114;51.100;13.998;2023-07-29T07:49:18;3.75;;;1.00;;
14076;SDS011;7114;51.100;13.998;2023-07-29T07:51:44;4.00;;;1.02;;
14076;SDS011;7114;51.100;13.998;2023-07-29T07:54:11;3.83;;;1.20;;
14076;SDS011;7114;51.100;13.998;2023-07-29T07:56:37;4.00;;;1.27;;
14076;SDS011;7114;51.100;13.998;2023-07-29T07:59:05;4.50;;;1.20;;
14076;SDS011;7114;51.100;13.998;2023-07-29T08:01:33;3.95;;;1.27;;
14076;SDS011;7114;51.100;13.998;2023-07-29T08:03:59;4.32;;;1.42;;
14076;SDS011;7114;51.100;13.998;2023-07-29T08:06:26;4.40;;;1.40;;
14076;SDS011;7114;51.100;13.998;2023-07-29T08:08:52;3.97;;;1.30;;
14076;SDS011;7114;51.100;13.998;2023-07-29T08:11:18;3.97;;;1.40;;
14076;SDS011;7114;51.100;13.998;2023-07-29T08:13:45;4.78;;;1.20;;
14076;SDS011;7114;51.100;13.998;2023-07-29T08:16:12;4.65;;;1.30;;
14076;SDS011;7114;51.100;13.998;2023-07-29T08:18:39;3.97;;;1.10;;
14076;SDS011;7114;51.100;13.998;2023-07-29T08:21:05;4.30;;;1.58;;
14076;SDS011;7114;51.100;13.998;2023-07-29T08:23:32;4.10;;;1.23;;
14076;SDS011;7114;51.100;13.998;2023-07-29T08:26:00;4.22;;;1.60;;
14076;SDS011;7114;51.100;13.998;2023-07-29T08:28:28;4.03;;;1.20;;
14076;SDS011;7114;51.100;13.998;2023-07-29T08:30:55;3.90;;;1.30;;
14076;SDS011;7114;51.100;13.998;2023-07-29T08:33:23;3.80;;;1.20;;
14076;SDS011;7114;51.100;13.998;2023-07-29T08:35:50;4.25;;;1.30;;
14076;SDS011;7114;51.100;13.998;2023-07-29T08:38:16;4.25;;;1.13;;
14076;SDS011;7114;51.100;13.998;2023-07-29T08:40:45;4.10;;;1.25;;
14076;SDS011;7114;51.100;13.998;2023-07-29T08:43:13;3.90;;;1.07;;
14076;SDS011;7114;51.100;13.998;2023-07-29T08:45:41;4.05;;;1.10;;
14076;SDS011;7114;51.100;13.998;2023-07-29T08:48:10;4.10;;;1.25;;
14076;SDS011;7114;51.100;13.998;2023-07-29T08:50:38;3.80;;;1.10;;
14076;SDS011;7114;51.100;13.998;2023-07-29T08:53:04;4.70;;;1.13;;
14076;SDS011;7114;51.100;13.998;2023-07-29T08:55:31;4.47;;;1.30;;
14076;SDS011;7114;51.100;13.998;2023-07-29T08:57:58;4.18;;;0.93;;
14076;SDS011;7114;51.100;13.998;2023-07-29T09:00:26;5.70;;;1.20;;
14076;SDS011;7114;51.100;13.998;2023-07-29T09:02:53;4.55;;;1.20;;
14076;SDS011;7114;51.100;13.998;2023-07-29T09:05:20;6.40;;;1.20;;
14076;SDS011;7114;51.100;13.998;2023-07-29T09:07:48;3.53;;;0.90;;
14076;SDS011;7114;51.100;13.998;2023-07-29T09:10:15;4.90;;;1.02;;
14076;SDS011;7114;51.100;13.998;2023-07-29T09:12:42;5.00;;;0.77;;
14076;SDS011;7114;51.100;13.998;2023-07-29T09:15:08;3.85;;;1.00;;
14076;SDS011;7114;51.100;13.998;2023-07-29T09:17:35;3.88;;;0.95;;
14076;SDS011;7114;51.100;13.998;2023-07-29T09:20:01;4.10;;;1.23;;
14076;SDS011;7114;51.100;13.998;2023-07-29T09:22:30;4.85;;;1.00;;
14076;SDS011;7114;51.100;13.998;2023-07-29T09:24:58;3.65;;;0.90;;
14076;SDS011;7114;51.100;13.998;2023-07-29T09:27:24;3.88;;;0.90;;
14076;SDS011;7114;51.100;13.998;2023-07-29T09:29:52;3.80;;;0.90;;
14076;SDS011;7114;51.100;13.998;2023-07-29T09:32:18;3.30;;;0.80;;
14076;SDS011;7114;51.100;13.998;2023-07-29T09:34:45;3.63;;;0.90;;
14076;SDS011;7114;51.100;13.998;2023-07-29T09:37:15;3.60;;;0.73;;
14076;SDS011;7114;51.100;13.998;2023-07-29T09:39:43;3.58;;;0.80;;
14076;SDS011;7114;51.100;13.998;2023-07-29T09:42:12;4.35;;;0.90;;
14076;SDS011;7114;51.100;13.998;2023-07-29T09:44:43;3.63;;;0.80;;
14076;SDS011;7114;51.100;13.998;2023-07-29T09:47:09;3.58;;;1.00;;
14076;SDS011;7114;51.100;13.998;2023-07-29T09:49:35;3.30;;;0.80;;
14076;SDS011;7114;51.100;13.998;2023-07-29T09:52:02;3.67;;;0.90;;
14076;SDS011;7114;51.100;13.998;2023-07-29T09:54:30;3.90;;;1.08;;
14076;SDS011;7114;51.100;13.998;2023-07-29T09:56:56;3.97;;;1.03;;
14076;SDS011;7114;51.100;13.998;2023-07-29T09:59:24;4.18;;;1.20;;
14076;SDS011;7114;51.100;13.998;2023-07-29T10:01:50;4.25;;;1.20;;
14076;SDS011;7114;51.100;13.998;2023-07-29T10:04:17;3.83;;;1.00;;
14076;SDS011;7114;51.100;13.998;2023-07-29T10:06:44;4.45;;;1.20;;
14076;SDS011;7114;51.100;13.998;2023-07-29T10:09:11;5.73;;;1.20;;
14076;SDS011;7114;51.100;13.998;2023-07-29T10:11:38;5.35;;;1.30;;
14076;SDS011;7114;51.100;13.998;2023-07-29T10:14:05;5.05;;;1.27;;
14076;SDS011;7114;51.100;13.998;2023-07-29T10:16:34;4.43;;;1.20;;
14076;SDS011;7114;51.100;13.998;2023-07-29T10:19:00;4.07;;;1.00;;
14076;SDS011;7114;51.100;13.998;2023-07-29T10:21:27;4.60;;;1.50;;
14076;SDS011;7114;51.100;13.998;2023-07-29T10:23:54;4.72;;;1.30;;
14076;SDS011;7114;51.100;13.998;2023-07-29T10:26:23;4.40;;;1.67;;
14076;SDS011;7114;51.100;13.998;2023-07-29T10:28:50;4.43;;;1.20;;
14076;SDS011;7114;51.100;13.998;2023-07-29T10:31:18;4.63;;;1.30;;
14076;SDS011;7114;51.100;13.998;2023-07-29T10:33:46;5.23;;;1.30;;
14076;SDS011;7114;51.100;13.998;2023-07-29T10:36:13;5.18;;;1.40;;
14076;SDS011;7114;51.100;13.998;2023-07-29T10:38:39;4.75;;;1.30;;
14076;SDS011;7114;51.100;13.998;2023-07-29T10:41:06;4.10;;;1.20;;
14076;SDS011;7114;51.100;13.998;2023-07-29T10:43:33;5.85;;;1.33;;
14076;SDS011;7114;51.100;13.998;2023-07-29T10:46:14;4.80;;;1.50;;
14076;SDS011;7114;51.100;13.998;2023-07-29T10:48:41;5.38;;;1.30;;
14076;SDS011;7114;51.100;13.998;2023-07-29T10:51:29;4.45;;;1.10;;
14076;SDS011;7114;51.100;13.998;2023-07-29T10:53:58;4.93;;;1.20;;
14076;SDS011;7114;51.100;13.998;2023-07-29T10:56:26;4.80;;;1.30;;
14076;SDS011;7114;51.100;13.998;2023-07-29T10:58:54;6.67;;;1.30;;
14076;SDS011;7114;51.100;13.998;2023-07-29T11:01:26;4.05;;;1.00;;
14076;SDS011;7114;51.100;13.998;2023-07-29T11:04:00;4.30;;;1.20;;
14076;SDS011;7114;51.100;13.998;2023-07-29T11:06:29;4.32;;;1.27;;
14076;SDS011;7114;51.100;13.998;2023-07-29T11:08:56;5.97;;;1.10;;
14076;SDS011;7114;51.100;13.998;2023-07-29T11:11:22;4.60;;;1.27;;
14076;SDS011;7114;51.100;13.998;2023-07-29T11:13:48;4.10;;;1.00;;
14076;SDS011;7114;51.100;13.998;2023-07-29T11:16:15;4.13;;;1.10;;
14076;SDS011;7114;51.100;13.998;2023-07-29T11:18:42;3.60;;;0.82;;
14076;SDS011;7114;51.100;13.998;2023-07-29T11:21:10;3.97;;;1.02;;
14076;SDS011;7114;51.100;13.998;2023-07-29T11:23:37;4.73;;;1.10;;
14076;SDS011;7114;51.100;13.998;2023-07-29T11:26:04;5.28;;;1.27;;
14076;SDS011;7114;51.100;13.998;2023-07-29T11:28:30;4.95;;;1.40;;
14076;SDS011;7114;51.100;13.998;2023-07-29T11:30:57;4.50;;;1.20;;
14076;SDS011;7114;51.100;13.998;2023-07-29T11:33:24;4.40;;;1.40;;
14076;SDS011;7114;51.100;13.998;2023-07-29T11:35:53;6.10;;;1.40;;
14076;SDS011;7114;51.100;13.998;2023-07-29T11:38:20;4.20;;;1.30;;
14076;SDS011;7114;51.100;13.998;2023-07-29T11:40:58;5.50;;;1.40;;
14076;SDS011;7114;51.100;13.998;2023-07-29T11:43:25;4.22;;;1.20;;
14076;SDS011;7114;51.100;13.998;2023-07-29T11:45:52;4.88;;;1.40;;
14076;SDS011;7114;51.100;13.998;2023-07-29T11:48:25;3.87;;;1.03;;
14076;SDS011;7114;51.100;13.998;2023-07-29T11:50:53;4.55;;;1.27;;
14076;SDS011;7114;51.100;13.998;2023-07-29T11:53:19;4.55;;;1.30;;
14076;SDS011;7114;51.100;13.998;2023-07-29T11:55:49;5.05;;;1.10;;
14076;SDS011;7114;51.100;13.998;2023-07-29T11:58:17;4.45;;;1.10;;
14076;SDS011;7114;51.100;13.998;2023-07-29T12:00:43;4.37;;;0.90;;
14076;SDS011;7114;51.100;13.998;2023-07-29T12:03:10;4.95;;;1.10;;
14076;SDS011;7114;51.100;13.998;2023-07-29T12:05:37;4.00;;;0.95;;
14076;SDS011;7114;51.100;13.998;2023-07-29T12:08:03;4.45;;;1.33;;
14076;SDS011;7114;51.100;13.998;2023-07-29T12:10:30;3.97;;;1.00;;
14076;SDS011;7114;51.100;13.998;2023-07-29T12:12:57;4.50;;;1.23;;
14076;SDS011;7114;51.100;13.998;2023-07-29T12:15:26;4.93;;;1.20;;
14076;SDS011;7114;51.100;13.998;2023-07-29T12:17:54;4.75;;;0.90;;
14076;SDS011;7114;51.100;13.998;2023-07-29T12:20:22;4.40;;;1.00;;
14076;SDS011;7114;51.100;13.998;2023-07-29T12:22:51;3.90;;;0.80;;
14076;SDS011;7114;51.100;13.998;2023-07-29T12:25:18;4.90;;;0.80;;
14076;SDS011;7114;51.100;13.998;2023-07-29T12:27:44;3.97;;;0.90;;
14076;SDS011;7114;51.100;13.998;2023-07-29T12:30:11;3.97;;;1.02;;
14076;SDS011;7114;51.100;13.998;2023-07-29T12:32:44;4.13;;;1.10;;
14076;SDS011;7114;51.100;13.998;2023-07-29T12:35:10;4.20;;;0.90;;
14076;SDS011;7114;51.100;13.998;2023-07-29T12:37:37;3.80;;;0.90;;
14076;SDS011;7114;51.100;13.998;2023-07-29T12:40:07;4.40;;;0.90;;
14076;SDS011;7114;51.100;13.998;2023-07-29T12:42:34;3.70;;;0.90;;
14076;SDS011;7114;51.100;13.998;2023-07-29T12:45:01;5.03;;;1.17;;
14076;SDS011;7114;51.100;13.998;2023-07-29T12:47:29;4.22;;;1.10;;
14076;SDS011;7114;51.100;13.998;2023-07-29T12:49:57;4.27;;;1.00;;
14076;SDS011;7114;51.100;13.998;2023-07-29T12:52:23;5.80;;;1.00;;
14076;SDS011;7114;51.100;13.998;2023-07-29T12:54:49;4.35;;;0.98;;
14076;SDS011;7114;51.100;13.998;2023-07-29T12:57:16;5.32;;;1.10;;
14076;SDS011;7114;51.100;13.998;2023-07-29T12:59:42;3.97;;;0.80;;
14076;SDS011;7114;51.100;13.998;2023-07-29T13:02:08;3.93;;;1.00;;
14076;SDS011;7114;51.100;13.998;2023-07-29T13:04:35;3.72;;;1.00;;
14076;SDS011;7114;51.100;13.998;2023-07-29T13:07:02;4.60;;;0.73;;
14076;SDS011;7114;51.100;13.998;2023-07-29T13:09:30;4.40;;;0.80;;
14076;SDS011;7114;51.100;13.998;2023-07-29T13:11:56;3.80;;;0.80;;
14076;SDS011;7114;51.100;13.998;2023-07-29T13:14:22;4.17;;;0.80;;
14076;SDS011;7114;51.100;13.998;2023-07-29T13:16:51;5.18;;;1.10;;
14076;SDS011;7114;51.100;13.998;2023-07-29T13:19:18;3.85;;;0.95;;
14076;SDS011;7114;51.100;13.998;2023-07-29T13:21:44;3.60;;;0.77;;
14076;SDS011;7114;51.100;13.998;2023-07-29T13:24:12;4.15;;;1.20;;
14076;SDS011;7114;51.100;13.998;2023-07-29T13:26:38;4.17;;;0.97;;
14076;SDS011;7114;51.100;13.998;2023-07-29T13:29:04;5.30;;;1.42;;
14076;SDS011;7114;51.100;13.998;2023-07-29T13:31:31;4.40;;;0.95;;
14076;SDS011;7114;51.100;13.998;2023-07-29T13:33:57;4.50;;;1.00;;
14076;SDS011;7114;51.100;13.998;2023-07-29T13:36:23;3.60;;;0.88;;
14076;SDS011;7114;51.100;13.998;2023-07-29T13:38:50;4.20;;;1.10;;
14076;SDS011;7114;51.100;13.998;2023-07-29T13:41:17;4.55;;;0.90;;
14076;SDS011;7114;51.100;13.998;2023-07-29T13:43:43;4.30;;;0.80;;
14076;SDS011;7114;51.100;13.998;2023-07-29T13:46:10;4.15;;;0.90;;
14076;SDS011;7114;51.100;13.998;2023-07-29T13:48:36;4.07;;;1.10;;
14076;SDS011;7114;51.100;13.998;2023-07-29T13:51:02;5.73;;;1.20;;
14076;SDS011;7114;51.100;13.998;2023-07-29T13:53:29;5.07;;;1.00;;
14076;SDS011;7114;51.100;13.998;2023-07-29T13:55:55;3.83;;;0.85;;
14076;SDS011;7114;51.100;13.998;2023-07-29T13:58:23;5.43;;;0.98;;
14076;SDS011;7114;51.100;13.998;2023-07-29T14:00:51;3.80;;;0.90;;
14076;SDS011;7114;51.100;13.998;2023-07-29T14:03:17;4.57;;;1.13;;
14076;SDS011;7114;51.100;13.998;2023-07-29T14:05:43;3.70;;;0.90;;
14076;SDS011;7114;51.100;13.998;2023-07-29T14:08:10;4.38;;;1.20;;
14076;SDS011;7114;51.100;13.998;2023-07-29T14:10:36;5.03;;;1.10;;
14076;SDS011;7114;51.100;13.998;2023-07-29T14:13:02;3.90;;;1.08;;
14076;SDS011;7114;51.100;13.998;2023-07-29T14:15:30;3.77;;;0.70;;
14076;SDS011;7114;51.100;13.998;2023-07-29T14:17:57;4.22;;;1.00;;
14076;SDS011;7114;51.100;13.998;2023-07-29T14:20:23;3.90;;;1.00;;
14076;SDS011;7114;51.100;13.998;2023-07-29T14:22:50;4.30;;;1.10;;
14076;SDS011;7114;51.100;13.998;2023-07-29T14:25:16;4.40;;;1.02;;
14076;SDS011;7114;51.100;13.998;2023-07-29T14:27:43;4.73;;;1.10;;
14076;SDS011;7114;51.100;13.998;2023-07-29T14:30:10;4.00;;;1.08;;
14076;SDS011;7114;51.100;13.998;2023-07-29T14:32:38;3.70;;;0.98;;
14076;SDS011;7114;51.100;13.998;2023-07-29T14:35:04;5.38;;;1.10;;
14076;SDS011;7114;51.100;13.998;2023-07-29T14:37:32;4.97;;;1.10;;
14076;SDS011;7114;51.100;13.998;2023-07-29T14:39:59;18.50;;;2.27;;
14076;SDS011;7114;51.100;13.998;2023-07-29T14:42:26;6.28;;;1.13;;
14076;SDS011;7114;51.100;13.998;2023-07-29T14:44:52;3.90;;;1.00;;
14076;SDS011;7114;51.100;13.998;2023-07-29T14:47:19;4.18;;;1.05;;